KHVS/HVS METAR and TAF weather

Enter ICAO airport designator
Station Type Date Time Source
KHVS METAR 2019/11/22 00:55 UTC NOAA

KHVS 220055Z AUTO 00000KT 10SM FEW030 FEW036 11/05 A3022 RMK AO2


Station Type Date Time Source
KHVS Decoded METAR 2019/11/22 00:55 UTC NOAA

Station name not available
Nov 21, 2019 - 07:55 PM EST / 2019.11.22 0055 UTC
Wind: Calm:0
Visibility: 10 mile(s):0
Sky conditions: mostly clear
Temperature: 51 F (11 C)
Dew Point: 41 F (5 C)
Relative Humidity: 66%
Pressure (altimeter): 30.22 in. Hg (1023 hPa)
ob: KHVS 220055Z AUTO 00000KT 10SM FEW030 FEW036 11/05 A3022 RMK AO2
cycle: 1

Station Type Date Time Source
KHVS TAF UTC NOAA

Error!

Example: see airport list